Latest Weather Observations for Kununurra Airport

IDD60801

Issued at 5:01 pm CST Friday 18 January 2019 (issued every 10 minutes, with the page automatically refreshed every 10 minutes)

About weather observations | Map of weather stations | Latest weather observations for NT | Other Formats
Station Details ID: 002056 Name: KUNUNURRA AERO Lat: -15.78 Lon: 128.71 Height: 44.0 m
Data from the previous 72 hours. | See also: Recent months at Kununurra Airport
Date/Time
CST
Temp
°C
App
Temp
°C
Dew
Point
°C
Rel
Hum
%
Delta-T
°C
Wind Press
QNH
hPa
Press
MSL
hPa
Rain since
9am
mm
Dir  Spd
km/h
Gust
km/h
Spd
kts
Gust
kts
18/05:00pm 34.0 36.2 21.8 49 8.3 ESE 13 17 7 9 1003.9 1003.5 0.0
18/04:30pm 34.7 36.0 21.7 46 8.9 ESE 17 22 9 12 1004.0 1003.6 0.0
18/04:00pm 34.6 35.7 22.0 48 8.6 SE 19 24 10 13 1003.9 1003.5 0.0
18/03:30pm 34.3 36.5 23.3 52 7.7 ESE 17 22 9 12 1004.7 1004.4 0.0
18/03:00pm 34.0 34.3 20.4 45 9.1 ESE 19 22 10 12 1005.4 1005.1 0.0
18/02:30pm 34.0 36.6 22.7 51 7.8 SE 13 19 7 10 1005.9 1005.6 0.0
18/02:00pm 33.6 36.8 23.0 54 7.3 S 11 15 6 8 1006.4 1006.1 0.0
18/01:30pm 33.5 38.3 24.4 59 6.4 S 7 13 4 7 1006.5 1006.2 0.0
18/01:00pm 32.4 36.4 24.4 62 5.6 W 11 17 6 9 1006.9 1006.6 0.0
18/12:30pm 31.5 34.6 23.6 63 5.5 WSW 13 17 7 9 1007.2 1006.9 0.0
18/12:00pm 31.4 34.5 24.8 68 4.6 SW 17 20 9 11 1007.2 1006.9 0.0
18/11:30am 30.9 34.2 23.8 66 4.9 SSW 13 19 7 10 1007.2 1006.9 0.0
18/11:00am 30.6 34.9 24.3 69 4.4 SW 9 15 5 8 1007.5 1007.2 0.0
18/10:30am 29.3 32.5 23.0 69 4.3 SSW 11 15 6 8 1007.6 1007.3 0.2
18/10:00am 29.0 32.4 23.4 72 3.9 WNW 11 15 6 8 1007.3 1007.0 0.2
18/09:30am 28.2 31.9 23.3 75 3.4 NNW 9 15 5 8 1007.4 1007.1 0.2
18/09:00am 27.8 32.2 23.4 77 3.0 W 6 11 3 6 1007.7 1007.4 0.2
18/08:30am 27.2 31.9 23.4 80 2.6 NNW 4 7 2 4 1007.3 1007.0 0.2
18/08:00am 26.5 29.5 23.4 83 2.1 WNW 13 19 7 10 1007.0 1006.7 0.2
18/07:30am 26.9 29.4 22.5 77 3.0 NE 13 17 7 9 1007.6 1007.3 0.2
18/07:00am 26.8 27.1 22.2 76 3.1 E 24 32 13 17 1007.7 1007.4 0.2
18/06:46am 27.1 26.7 22.3 75 3.2 E 28 39 15 21 1007.2 1006.9 0.2
18/06:31am 27.8 29.3 24.4 82 2.4 ENE 24 33 13 18 1007.2 1006.9 0.2
18/06:30am 28.0 30.0 24.6 82 2.4 ENE 22 33 12 18 1007.1 1006.8 0.2
18/06:00am 27.9 33.1 25.7 88 1.6 NNE 9 15 5 8 1006.2 1005.9 0.2
18/05:30am 28.1 31.9 25.9 88 1.6 NNE 17 24 9 13 1005.9 1005.6 0.2
18/05:07am 28.2 32.1 26.0 88 1.6 NE 17 24 9 13 1006.0 1005.7 0.2
18/05:00am 28.0 32.4 26.2 90 1.3 NE 15 19 8 10 1006.1 1005.8 0.2
18/04:37am 27.8 32.6 26.2 91 1.1 NNE 13 17 7 9 1005.9 1005.6 0.2
18/04:30am 27.7 32.5 26.3 92 1.0 NE 13 15 7 8 1005.9 1005.6 0.2
18/04:00am 27.5 32.2 26.1 92 1.0 N 13 15 7 8 1005.6 1005.3 0.2
18/03:30am 27.4 32.4 26.0 92 1.0 NNE 11 13 6 7 1005.6 1005.3 0.2
18/03:00am 27.4 32.2 26.2 93 0.9 NNE 13 15 7 8 1005.4 1005.1 0.2
18/02:37am 27.3 32.4 26.1 93 0.9 NNE 11 13 6 7 1005.4 1005.1 0.2
18/02:30am 27.3 32.6 25.9 92 1.0 N 9 11 5 6 1005.4 1005.1 0.2
18/02:26am 27.4 32.4 26.0 92 1.0 N 11 11 6 6 1005.4 1005.1 0.2
18/02:00am 27.7 32.8 26.1 91 1.1 N 11 13 6 7 1005.7 1005.4 0.2
18/01:43am 27.9 32.6 26.1 90 1.3 N 13 15 7 8 1005.9 1005.6 0.2
18/01:30am 27.9 32.6 26.1 90 1.3 N 13 15 7 8 1006.0 1005.7 0.2
18/01:25am 27.9 33.0 26.1 90 1.3 N 11 13 6 7 1006.2 1005.9 0.2
18/01:00am 28.1 34.4 25.9 88 1.6 NNW 4 6 2 3 1006.5 1006.2 0.2
18/12:30am 28.6 35.7 26.0 86 1.8 CALM 0 0 0 0 1006.8 1006.5 0.2
18/12:00am 28.8 34.1 25.8 84 2.1 N 9 13 5 7 1007.4 1007.1 0.2
 
Date/Time
CST
Temp
°C
App
Temp
°C
Dew
Point
°C
Rel
Hum
%
Delta-T
°C
Wind Press
QNH
hPa
Press
MSL
hPa
Rain since
9am
mm
Dir  Spd
km/h
Gust
km/h
Spd
kts
Gust
kts
17/11:30pm 29.4 33.8 25.6 80 2.7 N 13 17 7 9 1007.4 1007.1 0.2
17/11:00pm 29.2 32.9 25.2 79 2.8 N 15 17 8 9 1007.1 1006.8 0.2
17/10:30pm 29.3 33.9 24.8 77 3.2 N 9 13 5 7 1006.9 1006.6 0.2
17/10:00pm 29.2 33.6 24.5 76 3.3 NNE 9 13 5 7 1006.9 1006.6 0.2
17/09:30pm 29.5 34.5 24.8 76 3.3 NNE 7 9 4 5 1006.6 1006.3 0.2
17/09:00pm 30.0 34.3 24.9 74 3.6 N 11 11 6 6 1005.8 1005.5 0.2
17/08:30pm 30.0 33.9 24.2 71 4.0 N 11 11 6 6 1005.0 1004.7 0.2
17/08:00pm 30.0 34.3 24.2 71 4.0 NNE 9 11 5 6 1004.8 1004.5 0.2
17/07:30pm 31.8 35.8 23.1 60 6.0 N 7 9 4 5 1004.3 1004.0 0.2
17/07:00pm 33.8 36.6 20.9 46 8.7 NNW 7 9 4 5 1003.7 1003.3 0.2
17/06:30pm 34.3 36.3 20.7 45 9.2 N 11 15 6 8 1003.2 1002.8 0.2
17/06:00pm 34.7 36.5 20.3 43 9.6 NNW 11 15 6 8 1003.1 1002.7 0.2
17/05:30pm 34.9 36.2 18.5 38 10.8 N 9 15 5 8 1002.7 1002.3 0.2
17/05:00pm 34.9 37.0 19.3 40 10.3 NNE 7 11 4 6 1002.7 1002.3 0.2
17/04:30pm 34.6 36.7 20.2 43 9.7 NNE 9 11 5 6 1002.8 1002.4 0.2
17/04:00pm 34.6 37.6 20.9 44 9.2 NNE 6 9 3 5 1003.5 1003.1 0.2
17/03:30pm 34.3 37.4 21.4 47 8.8 NE 7 13 4 7 1003.9 1003.5 0.2
17/03:00pm 34.0 37.3 21.8 49 8.3 E 7 13 4 7 1004.4 1004.1 0.2
17/02:30pm 33.6 35.8 21.1 48 8.5 ESE 11 15 6 8 1005.1 1004.8 0.2
17/02:00pm 34.3 37.2 21.7 47 8.6 NE 9 15 5 8 1005.5 1005.2 0.2
17/01:30pm 33.4 36.2 20.9 48 8.4 NNE 7 11 4 6 1006.1 1005.8 0.2
17/01:00pm 32.6 36.2 22.1 54 7.2 E 6 9 3 5 1006.5 1006.2 0.2
17/12:30pm 32.1 35.0 22.5 57 6.6 SSW 11 15 6 8 1007.1 1006.8 0.2
17/12:00pm 30.9 32.8 21.4 57 6.4 SW 13 19 7 10 1007.5 1007.2 0.2
17/11:30am 30.8 33.6 21.6 58 6.2 WSW 9 15 5 8 1007.9 1007.6 0.2
17/11:00am 30.1 33.0 21.7 60 5.7 WSW 9 15 5 8 1008.5 1008.2 0.2
17/10:30am 29.2 31.4 20.4 59 5.8 SSE 9 13 5 7 1008.8 1008.5 0.4
17/10:00am 27.7 30.5 20.5 65 4.7 SSW 6 9 3 5 1009.2 1008.9 0.4
17/09:30am 25.7 28.8 22.2 81 2.4 SW 9 11 5 6 1008.9 1008.6 0.4
17/09:00am 25.0 28.0 21.3 80 2.4 S 7 9 4 5 1008.8 1008.5 0.4
17/08:58am 24.9 27.7 20.8 78 2.7 S 7 9 4 5 1008.8 1008.5 0.4
17/08:34am 24.2 27.6 21.7 86 1.7 W 6 9 3 5 1008.6 1008.3 0.4
17/08:30am 24.0 27.4 21.7 87 1.5 W 6 6 3 3 1008.6 1008.3 0.4
17/08:24am 23.9 27.3 21.6 87 1.5 WNW 6 9 3 5 1008.4 1008.1 0.4
17/08:13am 23.7 27.1 21.6 88 1.4 W 6 7 3 4 1008.4 1008.1 0.4
17/08:00am 23.4 26.5 21.5 89 1.3 W 7 11 4 6 1008.7 1008.4 0.4
17/07:30am 23.3 26.1 21.6 90 1.1 W 9 11 5 6 1009.1 1008.8 0.4
17/07:20am 23.1 25.5 21.5 91 1.1 NW 11 17 6 9 1009.4 1009.1 0.4
17/07:06am 23.1 24.3 21.4 90 1.1 NW 17 20 9 11 1009.4 1009.1 0.4
17/07:00am 23.0 24.5 21.3 90 1.1 WNW 15 17 8 9 1009.5 1009.2 0.4
17/06:36am 23.4 25.1 20.9 86 1.6 NW 13 17 7 9 1009.3 1009.0 0.4
17/06:30am 23.3 24.8 21.2 88 1.4 WNW 15 17 8 9 1009.2 1008.9 0.4
17/06:26am 23.2 25.0 21.1 88 1.4 WNW 13 15 7 8 1009.1 1008.8 0.4
17/06:24am 23.2 25.4 21.1 88 1.4 NW 11 15 6 8 1009.1 1008.8 0.4
17/06:05am 23.5 23.4 21.4 88 1.4 ENE 24 43 13 23 1008.7 1008.4 0.4
17/06:00am 23.5 22.1 21.2 87 1.5 ENE 30 48 16 26 1008.7 1008.4 0.4
17/05:57am 23.4 21.4 21.1 87 1.5 ENE 33 48 18 26 1008.8 1008.5 0.4
17/05:46am 23.1 20.0 21.2 89 1.2 NE 39 57 21 31 1008.7 1008.4 0.4
17/05:44am 23.2 19.8 21.3 89 1.2 NE 41 57 22 31 1008.5 1008.2 0.4
17/05:43am 23.4 19.5 21.1 87 1.5 NE 43 57 23 31 1008.4 1008.1 0.4
17/05:30am 23.6 19.5 21.9 90 1.1 NE 46 74 25 40 1008.2 1007.9 0.0
17/05:22am 23.9 20.4 21.8 88 1.4 ENE 43 74 23 40 1008.0 1007.7 0.0
17/05:13am 27.1 25.2 21.4 71 3.8 ENE 33 59 18 32 1007.8 1007.5 0.0
17/05:12am 27.2 26.1 22.4 75 3.2 ENE 32 46 17 25 1007.8 1007.5 0.0
17/05:00am 27.7 30.3 24.9 85 2.0 E 20 28 11 15 1007.5 1007.2 0.0
17/04:44am 26.4 31.5 25.0 92 1.0 ENE 7 11 4 6 1007.0 1006.7 0.0
17/04:30am 26.1 31.6 24.0 88 1.4 ENE 2 7 1 4 1006.6 1006.3 0.0
17/04:25am 26.2 32.1 24.1 88 1.4 CALM 0 0 0 0 1006.5 1006.2 0.0
17/04:00am 26.6 32.6 24.3 87 1.6 CALM 0 0 0 0 1006.0 1005.7 0.0
17/03:30am 26.2 32.0 23.9 87 1.6 CALM 0 0 0 0 1005.8 1005.5 0.0
17/03:03am 26.5 30.7 23.2 82 2.2 E 6 7 3 4 1005.9 1005.6 0.0
17/03:00am 26.4 30.7 23.3 83 2.1 E 6 7 3 4 1005.9 1005.6 0.0
17/02:48am 26.6 31.4 23.5 83 2.1 NNE 4 7 2 4 1006.0 1005.7 0.0
17/02:42am 26.6 31.5 23.1 81 2.4 N 2 7 1 4 1006.0 1005.7 0.0
17/02:31am 26.3 30.8 23.6 85 1.8 NW 6 7 3 4 1005.9 1005.6 0.0
17/02:30am 26.4 30.9 23.7 85 1.9 NW 6 7 3 4 1005.9 1005.6 0.0
17/02:00am 26.1 30.6 23.6 86 1.7 WNW 6 7 3 4 1006.0 1005.7 0.0
17/01:33am 26.4 31.2 23.5 84 2.0 N 4 6 2 3 1006.2 1005.9 0.0
17/01:30am 26.3 30.8 23.6 85 1.9 N 6 9 3 5 1006.3 1006.0 0.0
17/01:23am 26.3 30.2 23.6 85 1.8 NNW 9 11 5 6 1006.5 1006.2 0.0
17/01:00am 26.4 30.9 23.7 85 1.9 WSW 6 7 3 4 1007.1 1006.8 0.0
17/12:30am 26.3 30.6 24.2 88 1.5 WNW 9 11 5 6 1007.8 1007.5 0.0
17/12:00am 26.4 29.9 23.5 84 2.0 NW 11 13 6 7 1008.0 1007.7 0.0
 
Date/Time
CST
Temp
°C
App
Temp
°C
Dew
Point
°C
Rel
Hum
%
Delta-T
°C
Wind Press
QNH
hPa
Press
MSL
hPa
Rain since
9am
mm
Dir  Spd
km/h
Gust
km/h
Spd
kts
Gust
kts
16/11:30pm 27.0 32.6 23.5 81 2.4 CALM 0 0 0 0 1008.5 1008.2 0.0
16/11:00pm 27.4 32.1 22.6 75 3.3 NNW 2 6 1 3 1008.2 1007.9 0.0
16/10:30pm 26.8 30.6 23.5 82 2.3 NW 9 9 5 5 1008.0 1007.7 0.0
16/10:00pm 27.3 32.6 23.1 78 2.9 CALM 0 0 0 0 1007.7 1007.4 0.0
16/09:30pm 27.0 30.5 22.8 78 2.9 NNE 9 11 5 6 1007.3 1007.0 0.0
16/09:00pm 27.7 31.2 22.9 75 3.3 E 9 13 5 7 1007.3 1007.0 0.0
16/08:30pm 27.6 32.1 22.3 73 3.6 ENE 2 6 1 3 1006.5 1006.2 0.0
16/08:28pm 27.6 32.1 22.3 73 3.6 ENE 2 7 1 4 1006.4 1006.1 0.0
16/08:09pm 26.7 29.9 22.3 77 3.0 NE 9 11 5 6 1006.2 1005.9 0.0
16/08:00pm 27.1 30.6 21.8 73 3.6 E 6 11 3 6 1006.2 1005.9 0.0
16/07:30pm 27.9 29.6 21.0 66 4.6 NW 13 19 7 10 1005.1 1004.8 0.0
16/07:00pm 27.3 28.7 21.8 72 3.7 NW 17 22 9 12 1004.7 1004.4 0.0
16/06:30pm 28.7 27.7 22.0 67 4.5 NNW 30 39 16 21 1004.6 1004.3 0.0
16/06:13pm 31.3 31.5 23.4 63 5.5 N 28 52 15 28 1004.0 1003.6 0.0
16/06:08pm 33.3 35.6 22.7 53 7.3 N 15 37 8 20 1003.5 1003.1 0.0
16/06:00pm 36.1 39.4 21.9 43 9.7 N 7 11 4 6 1003.0 1002.6 0.0
16/05:30pm 37.3 41.0 21.4 39 10.9 NNE 4 9 2 5 1002.9 1002.5 0.0
16/05:00pm 37.1 40.4 20.8 38 11.1 NNE 4 7 2 4 1003.2 1002.8 0.0
16/04:30pm 36.5 39.7 23.7 47 9.0 NW 13 17 7 9 1003.4 1003.0 0.0
16/04:00pm 37.0 40.2 21.2 40 10.8 WNW 6 11 3 6 1003.9 1003.5 0.0
16/03:30pm 36.4 39.5 21.0 40 10.5 WSW 6 13 3 7 1004.5 1004.2 0.0
16/03:00pm 36.4 40.9 24.0 49 8.7 NNE 7 17 4 9 1005.2 1004.9 0.0
16/02:30pm 35.3 38.8 23.6 50 8.2 NW 11 24 6 13 1005.7 1005.4 0.0
16/02:00pm 36.0 39.9 22.9 46 9.1 W 7 13 4 7 1006.1 1005.8 0.0
16/01:30pm 35.7 39.7 23.7 50 8.4 WSW 9 17 5 9 1006.6 1006.3 0.0
16/01:00pm 34.4 38.6 23.4 52 7.7 WNW 7 15 4 8 1007.1 1006.8 0.0
16/12:30pm 34.3 38.4 23.9 54 7.3 NNW 9 19 5 10 1007.4 1007.1 0.0
16/12:00pm 33.8 37.5 23.2 54 7.4 NNW 9 17 5 9 1007.7 1007.4 0.0
16/11:30am 33.2 37.0 24.1 59 6.4 N 11 19 6 10 1008.2 1007.9 0.0
16/11:00am 32.1 35.0 23.1 59 6.2 NNW 13 17 7 9 1008.6 1008.3 0.0
16/10:30am 31.7 35.2 23.5 62 5.7 N 11 17 6 9 1008.6 1008.3 0.0
16/10:00am 30.9 35.5 24.8 70 4.3 N 9 15 5 8 1008.7 1008.4 0.0
16/09:30am 30.5 35.0 24.6 70 4.1 N 9 17 5 9 1008.7 1008.4 0.0
16/09:00am 29.9 35.2 25.2 76 3.3 N 7 11 4 6 1008.7 1008.4 0.0
16/08:30am 29.1 34.2 24.9 78 2.9 NW 7 9 4 5 1008.4 1008.1 0.0
16/08:00am 28.4 33.6 24.8 81 2.5 NNW 6 7 3 4 1008.4 1008.1 0.0
16/07:30am 27.3 32.5 25.1 88 1.5 N 7 9 4 5 1008.3 1008.0 0.0
16/07:00am 26.3 31.6 24.9 92 1.0 NE 6 7 3 4 1008.0 1007.7 0.0
16/06:30am 26.2 31.5 25.0 93 0.8 NE 6 7 3 4 1007.7 1007.4 0.0
16/06:00am 26.2 31.4 24.8 92 1.0 N 6 7 3 4 1007.2 1006.9 0.0
16/05:30am 26.5 33.1 25.3 93 0.8 CALM 0 0 0 0 1006.9 1006.6 0.0
16/05:00am 26.5 32.4 25.3 93 0.8 W 4 7 2 4 1006.6 1006.3 0.0
16/04:30am 26.4 31.7 25.2 93 0.8 N 7 9 4 5 1006.7 1006.4 0.0
16/04:00am 26.6 32.0 25.2 92 1.0 NNW 6 7 3 4 1006.8 1006.5 0.0
16/03:30am 26.7 32.1 25.1 91 1.1 NNW 6 9 3 5 1006.9 1006.6 0.0
16/03:00am 27.0 32.4 25.4 91 1.1 N 7 9 4 5 1006.9 1006.6 0.0
16/02:30am 27.0 31.6 25.4 91 1.1 N 11 13 6 7 1007.0 1006.7 0.0
16/02:00am 27.5 32.2 25.5 89 1.4 N 11 13 6 7 1007.1 1006.8 0.0
16/01:30am 27.7 33.0 25.3 87 1.7 NE 7 9 4 5 1007.3 1007.0 0.0
16/01:00am 27.9 32.8 25.3 86 1.8 N 9 9 5 5 1007.3 1007.0 0.0
16/12:30am 28.4 33.1 25.0 82 2.4 N 9 11 5 6 1007.4 1007.1 0.0
16/12:21am 28.6 33.5 25.2 82 2.4 N 9 13 5 7 1007.6 1007.3 0.0
16/12:04am 28.7 33.1 25.1 81 2.5 N 11 15 6 8 1007.6 1007.3 0.0
16/12:00am 28.7 33.1 25.1 81 2.5 N 11 15 6 8 1007.6 1007.3 0.0
 
Date/Time
CST
Temp
°C
App
Temp
°C
Dew
Point
°C
Rel
Hum
%
Delta-T
°C
Wind Press
QNH
hPa
Press
MSL
hPa
Rain since
9am
mm
Dir  Spd
km/h
Gust
km/h
Spd
kts
Gust
kts
15/11:30pm 28.8 33.8 25.4 82 2.4 N 9 11 5 6 1007.9 1007.6 0.0
15/11:00pm 29.5 33.9 25.0 77 3.2 NNW 11 13 6 7 1007.6 1007.3 0.0
15/10:30pm 29.7 34.1 25.0 76 3.3 NNW 11 13 6 7 1007.5 1007.2 0.0
15/10:00pm 30.4 34.1 24.5 70 4.1 NNW 13 20 7 11 1007.5 1007.2 0.0
15/09:36pm 30.5 34.2 24.6 70 4.1 NNW 13 15 7 8 1007.3 1007.0 0.0
15/09:30pm 30.5 34.6 24.6 70 4.1 NNW 11 15 6 8 1007.2 1006.9 0.0
15/09:26pm 30.6 34.7 24.5 70 4.3 NNW 11 15 6 8 1007.2 1006.9 0.0
15/09:00pm 30.5 34.5 24.4 70 4.3 NNW 11 15 6 8 1006.8 1006.5 0.0
15/08:30pm 30.8 34.4 24.4 68 4.5 NNW 13 15 7 8 1006.3 1006.0 0.0
15/08:00pm 31.4 35.3 24.3 66 5.0 NNW 11 15 6 8 1006.0 1005.7 0.0
15/07:30pm 32.3 35.9 24.3 62 5.6 NW 13 17 7 9 1005.5 1005.2 0.0
15/07:00pm 33.4 36.2 24.3 59 6.4 NNW 17 20 9 11 1004.9 1004.6 0.0

Other Formats:

Comma delimited format used in spreadsheet applications
http://www.bom.gov.au/fwo/IDD60801/IDD60801.94216.axf

JavaScript Object Notation format (JSON) in row-major order
http://www.bom.gov.au/fwo/IDD60801/IDD60801.94216.json